Pagina principale
METAR-TAF:

METAR-TAF

Aeroporti :

Bad Vöslau, Austria

latitudine: 47-57-52N, longitudine: 016-15-34E, altezza: 233 m

Osservazione

Il bollettino è stato emesso 11 ore e 9 minuti fa, alle 16:00 UTC
Vento 4 kt da ovest
Temperature 16°C
Umidità 72%
Pressione
Visibilità: 5000 m
foschia

METAR: LOAV 181600Z 27004KT 5000 BR FEW005ST SCT100AC 16/11

Ora: 05:09 (03:09 UTC)

Previsione

Il bollettino è stato emesso 15 ore e 44 minuti fa, alle 11:25 UTC
Previsione valida dal 18 alle 12 UTC al 18 alle 21 UTC
Vento 2 kt da direzioni variabili
Visibilità: 5000 m
Poco nuvoloso ad un'altezza di 500 ft
Nubi sparse ad un'altezza di 10000 ft
foschia

TAF: LOAV 181125Z 1812/1821 VRB02KT 5000 BR FEW005 SCT100

Osservazioni e previsioni meteorologiche di più di 4000 aeroporti (messaggi METAR e TAF).

Le stazioni disponibili sono rappresentate dai dischi gialli e rossi sulla carta.

Puntare il mouse per vedere il nome della stazione.

Clicca sopra per visualizzare le osservazioni e previsioni meteorologiche.

Per cambiare la mappa : fare clic sui pulsanti verdi con una croce nera per ingrandire, il pulsante verde con un trattino per diminuire, o sulla freccia verde per le mappe adiacenti.


METAR-TAF: